Jolly Acres, South Dakota
Current Conditions -  °F | °C
As of 4:52 PM on Friday 28 Nov 2014 (Local Time) from KRAP Reporting Station
Clear Clear  
Wind Chill: 52°   Ceiling: Unl
Heat Index: 52°   Visibility: 10mi
Dew Point: 23°   Wind: 8mph
Humidity: 32%   Direction: 300°WNW
Pressure: 29.57"   Gusts: NA
Location:  44.0731°N, 103.205°W
Report Text: KRAP 282352Z 30007KT 10SM CLR 11/M05 A2957 RMK AO2 SLP016 T01111050 10178 20100 50002
Loading
Personal Weather Stations






























Interactive Weather Map New forecast layout! Learn more

10-Day Weather Forecast

Advertisements
Track Severe Weather on mobile